createdAt,value
2023-04-16T00:00:35.955Z,8.11
2023-04-16T00:01:35.138Z,8.05
2023-04-16T00:02:35.349Z,8.08
2023-04-16T00:03:35.464Z,8.10
2023-04-16T00:04:35.263Z,8.13
2023-04-16T00:05:35.257Z,8.14
2023-04-16T00:06:35.302Z,8.17
2023-04-16T00:07:35.305Z,8.24
2023-04-16T00:08:35.326Z,8.26
2023-04-16T00:09:35.336Z,8.40
2023-04-16T00:10:35.386Z,8.42
2023-04-16T00:11:35.450Z,8.59
2023-04-16T00:12:35.446Z,8.65
2023-04-16T00:13:35.530Z,8.62
2023-04-16T00:14:35.535Z,8.64
2023-04-16T00:15:35.515Z,8.76
2023-04-16T00:16:35.596Z,8.83
2023-04-16T00:17:35.651Z,8.82
2023-04-16T00:18:35.731Z,8.91
2023-04-16T00:19:35.796Z,8.94
2023-04-16T00:20:35.707Z,8.98
2023-04-16T00:21:35.725Z,8.74
2023-04-16T00:22:35.749Z,8.75
2023-04-16T00:23:35.824Z,8.83
2023-04-16T00:24:35.827Z,8.72
2023-04-16T00:25:35.835Z,8.55
2023-04-16T00:26:35.869Z,8.63
2023-04-16T00:27:35.940Z,8.69
2023-04-16T00:28:36.024Z,8.65
2023-04-16T00:29:35.979Z,8.71
2023-04-16T00:30:36.123Z,8.77
2023-04-16T00:31:36.422Z,8.82
2023-04-16T00:32:36.155Z,8.77
2023-04-16T00:33:36.198Z,8.80
2023-04-16T00:34:36.225Z,8.78
2023-04-16T00:35:36.255Z,8.91
2023-04-16T00:36:36.274Z,9.03
2023-04-16T00:37:36.327Z,9.06
2023-04-16T00:38:36.510Z,9.14
2023-04-16T00:39:36.365Z,9.20
2023-04-16T00:40:36.398Z,9.26
2023-04-16T00:41:36.406Z,9.27
2023-04-16T00:42:37.549Z,9.22
2023-04-16T00:43:36.475Z,9.12
2023-04-16T00:44:36.523Z,9.06
2023-04-16T00:45:36.540Z,9.12
2023-04-16T00:46:37.001Z,9.16
2023-04-16T00:47:36.597Z,9.05
2023-04-16T00:48:36.953Z,9.02
2023-04-16T00:49:36.597Z,9.05
2023-04-16T00:50:36.679Z,9.11
2023-04-16T00:51:36.739Z,9.18
2023-04-16T00:52:36.772Z,9.09
2023-04-16T00:53:36.848Z,9.13
2023-04-16T00:54:36.860Z,9.21
2023-04-16T00:55:36.886Z,9.36
2023-04-16T00:56:36.892Z,9.37
2023-04-16T00:57:36.927Z,9.48
2023-04-16T00:58:38.028Z,9.48
2023-04-16T00:59:36.946Z,9.47
2023-04-16T01:00:37.947Z,9.32
2023-04-16T01:01:37.063Z,9.28
2023-04-16T01:02:37.211Z,9.30
2023-04-16T01:03:37.274Z,9.42
2023-04-16T01:04:37.153Z,9.49
2023-04-16T01:05:37.167Z,9.54
2023-04-16T01:06:37.247Z,9.63
2023-04-16T01:07:37.223Z,9.71
2023-04-16T01:08:37.292Z,9.65
2023-04-16T01:09:37.292Z,9.64
2023-04-16T01:10:37.284Z,9.68
2023-04-16T01:11:37.394Z,9.73
2023-04-16T01:12:37.325Z,9.75
2023-04-16T01:13:37.373Z,9.82
2023-04-16T01:14:37.392Z,9.91
2023-04-16T01:15:37.472Z,9.96
2023-04-16T01:16:38.457Z,9.92
2023-04-16T01:17:37.643Z,9.87
2023-04-16T01:18:37.592Z,9.90
2023-04-16T01:19:37.584Z,9.92
2023-04-16T01:20:37.582Z,9.68
2023-04-16T01:21:37.632Z,9.67
2023-04-16T01:22:37.696Z,9.62
2023-04-16T01:23:37.771Z,9.64
2023-04-16T01:24:37.799Z,9.74
2023-04-16T01:25:37.850Z,9.74
2023-04-16T01:26:37.906Z,9.75
2023-04-16T01:27:37.989Z,9.77
2023-04-16T01:28:37.979Z,9.71
2023-04-16T01:29:38.027Z,9.68
2023-04-16T01:30:38.136Z,9.75
2023-04-16T01:31:38.176Z,9.83
2023-04-16T01:32:38.199Z,9.89
2023-04-16T01:33:38.173Z,9.91
2023-04-16T01:34:38.180Z,9.99
2023-04-16T01:35:38.241Z,10.00
2023-04-16T01:36:38.210Z,9.87
2023-04-16T01:37:38.492Z,9.79
2023-04-16T01:38:38.259Z,9.74
2023-04-16T01:39:38.319Z,9.77
2023-04-16T01:40:38.351Z,9.78
2023-04-16T01:41:38.377Z,9.83
2023-04-16T01:42:38.455Z,9.88
2023-04-16T01:43:40.208Z,9.80
2023-04-16T01:44:38.563Z,9.74
2023-04-16T01:45:38.651Z,9.79
2023-04-16T01:46:38.665Z,9.75
2023-04-16T01:47:38.729Z,9.72
2023-04-16T01:48:38.737Z,9.69
2023-04-16T01:49:38.727Z,9.72
2023-04-16T01:50:38.790Z,9.68
2023-04-16T01:51:38.859Z,9.64
2023-04-16T01:52:38.870Z,9.70
2023-04-16T01:53:38.934Z,9.79
2023-04-16T01:54:38.966Z,9.78
2023-04-16T01:55:38.994Z,9.71
2023-04-16T01:56:38.995Z,9.71
2023-04-16T01:57:39.059Z,9.75
2023-04-16T01:58:39.104Z,9.81
2023-04-16T01:59:39.055Z,9.83
2023-04-16T02:00:40.012Z,9.83
2023-04-16T02:01:39.145Z,9.87
2023-04-16T02:02:39.287Z,9.93
2023-04-16T02:03:39.266Z,9.87
2023-04-16T02:04:39.251Z,9.80
2023-04-16T02:05:39.289Z,9.83
2023-04-16T02:06:39.360Z,9.90
2023-04-16T02:07:39.373Z,9.94
2023-04-16T02:08:39.433Z,9.98
2023-04-16T02:09:39.489Z,9.95
2023-04-16T02:10:39.583Z,9.97
2023-04-16T02:11:39.538Z,10.01
2023-04-16T02:12:39.956Z,10.05
2023-04-16T02:13:39.567Z,10.02
2023-04-16T02:14:39.583Z,10.00
2023-04-16T02:15:39.604Z,9.85
2023-04-16T02:16:40.534Z,9.84
2023-04-16T02:17:40.017Z,9.76
2023-04-16T02:18:39.647Z,9.75
2023-04-16T02:19:39.652Z,9.72
2023-04-16T02:20:39.644Z,9.74
2023-04-16T02:21:39.681Z,9.77
2023-04-16T02:22:39.678Z,9.77
2023-04-16T02:23:39.693Z,9.69
2023-04-16T02:24:39.776Z,9.59
2023-04-16T02:25:40.495Z,9.55
2023-04-16T02:26:39.803Z,9.57
2023-04-16T02:27:39.838Z,9.60
2023-04-16T02:28:39.894Z,9.62
2023-04-16T02:29:39.904Z,9.67
2023-04-16T02:30:40.067Z,9.66
2023-04-16T02:31:40.056Z,9.48
2023-04-16T02:32:40.198Z,9.41
2023-04-16T02:33:40.146Z,9.45
2023-04-16T02:34:40.290Z,9.50
2023-04-16T02:35:40.230Z,9.50
2023-04-16T02:36:40.250Z,9.58
2023-04-16T02:37:40.512Z,9.61
2023-04-16T02:38:40.395Z,9.65
2023-04-16T02:39:40.399Z,9.69
2023-04-16T02:40:42.995Z,9.70
2023-04-16T02:41:40.740Z,9.60
2023-04-16T02:42:40.733Z,9.62
2023-04-16T02:43:40.754Z,9.67
2023-04-16T02:44:40.846Z,9.75
2023-04-16T02:45:40.900Z,9.75
2023-04-16T02:46:40.888Z,9.80
2023-04-16T02:47:40.955Z,9.81
2023-04-16T02:48:40.976Z,9.80
2023-04-16T02:49:40.975Z,9.73
2023-04-16T02:50:41.009Z,9.69
2023-04-16T02:51:41.033Z,9.69
2023-04-16T02:52:41.485Z,9.72
2023-04-16T02:53:41.058Z,9.72
2023-04-16T02:54:41.109Z,9.70
2023-04-16T02:55:41.166Z,9.74
2023-04-16T02:56:41.151Z,9.75
2023-04-16T02:57:41.185Z,9.77
2023-04-16T02:58:41.265Z,9.81
2023-04-16T02:59:41.220Z,9.79
2023-04-16T03:00:41.287Z,9.78
2023-04-16T03:01:41.368Z,9.76
2023-04-16T03:02:41.433Z,9.77
2023-04-16T03:03:41.363Z,9.83
2023-04-16T03:04:41.399Z,9.81
2023-04-16T03:05:41.368Z,9.77
2023-04-16T03:06:41.443Z,9.76
2023-04-16T03:07:41.430Z,9.64
2023-04-16T03:08:41.484Z,9.57
2023-04-16T03:09:41.513Z,9.60
2023-04-16T03:10:41.580Z,9.45
2023-04-16T03:11:41.548Z,9.41
2023-04-16T03:12:41.628Z,9.49
2023-04-16T03:13:41.620Z,9.52
2023-04-16T03:14:41.665Z,9.56
2023-04-16T03:15:41.751Z,9.53
2023-04-16T03:16:41.627Z,9.43
2023-04-16T03:17:41.679Z,9.46
2023-04-16T03:18:41.863Z,9.34
2023-04-16T03:19:41.901Z,9.24
2023-04-16T03:20:41.828Z,9.19
2023-04-16T03:21:41.898Z,9.13
2023-04-16T03:22:42.012Z,9.09
2023-04-16T03:23:41.980Z,9.04
2023-04-16T03:24:42.035Z,9.08
2023-04-16T03:25:42.007Z,9.16
2023-04-16T03:26:42.024Z,9.04
2023-04-16T03:27:42.054Z,8.92
2023-04-16T03:28:42.054Z,8.82
2023-04-16T03:29:42.079Z,8.77
2023-04-16T03:30:42.160Z,8.82
2023-04-16T03:31:42.145Z,8.97
2023-04-16T03:32:42.173Z,9.08
2023-04-16T03:33:42.507Z,9.15
2023-04-16T03:34:42.225Z,9.17
2023-04-16T03:35:42.251Z,9.18
2023-04-16T03:36:42.373Z,9.26
2023-04-16T03:37:42.374Z,9.33
2023-04-16T03:38:42.458Z,9.40
2023-04-16T03:39:42.523Z,9.44
2023-04-16T03:40:42.659Z,9.49
2023-04-16T03:41:42.674Z,9.51
2023-04-16T03:42:42.725Z,9.48
2023-04-16T03:43:42.753Z,9.53
2023-04-16T03:44:42.784Z,9.53
2023-04-16T03:45:42.855Z,9.40
2023-04-16T03:46:42.907Z,9.30
2023-04-16T03:47:42.957Z,9.37
2023-04-16T03:48:42.946Z,9.47
2023-04-16T03:49:42.992Z,9.57
2023-04-16T03:50:42.996Z,9.61
2023-04-16T03:51:43.109Z,9.56
2023-04-16T03:52:43.037Z,9.61
2023-04-16T03:53:43.089Z,9.67
2023-04-16T03:54:43.111Z,9.67
2023-04-16T03:55:43.143Z,9.62
2023-04-16T03:56:43.213Z,9.56
2023-04-16T03:57:43.253Z,9.59
2023-04-16T03:58:43.259Z,9.48
2023-04-16T03:59:43.259Z,9.41
2023-04-16T04:00:44.051Z,9.45
2023-04-16T04:01:43.259Z,9.35
2023-04-16T04:04:43.436Z,9.01
2023-04-16T04:05:43.330Z,8.98
2023-04-16T04:06:43.403Z,8.85
2023-04-16T04:07:43.364Z,8.92
2023-04-16T04:08:43.427Z,9.00
2023-04-16T04:09:43.553Z,9.07
2023-04-16T04:10:43.484Z,9.06
2023-04-16T04:11:43.505Z,9.06
2023-04-16T04:12:43.513Z,8.90
2023-04-16T04:13:43.588Z,8.90
2023-04-16T04:14:43.583Z,8.94
2023-04-16T04:15:43.619Z,8.86
2023-04-16T04:16:43.764Z,8.92
2023-04-16T04:17:43.740Z,8.94
2023-04-16T04:18:44.571Z,9.01
2023-04-16T04:19:54.316Z,9.08
2023-04-16T04:20:45.494Z,8.98
2023-04-16T04:21:43.692Z,8.91
2023-04-16T04:22:43.713Z,8.93
2023-04-16T04:23:43.768Z,8.94
2023-04-16T04:24:43.678Z,8.76
2023-04-16T04:25:43.751Z,8.70
2023-04-16T04:26:43.665Z,8.68
2023-04-16T04:27:43.686Z,8.77
2023-04-16T04:28:43.668Z,8.81
2023-04-16T04:29:43.704Z,8.80
2023-04-16T04:30:43.683Z,8.86
2023-04-16T04:31:43.691Z,8.73
2023-04-16T04:32:43.726Z,8.72
2023-04-16T04:33:43.636Z,8.62
2023-04-16T04:34:43.681Z,8.64
2023-04-16T04:35:43.731Z,8.53
2023-04-16T04:36:43.720Z,8.49
2023-04-16T04:37:43.768Z,8.47
2023-04-16T04:38:43.788Z,8.41
2023-04-16T04:39:43.801Z,8.42
2023-04-16T04:40:43.828Z,8.32
2023-04-16T04:41:43.829Z,8.30
2023-04-16T04:42:44.536Z,8.31
2023-04-16T04:43:43.873Z,8.36
2023-04-16T04:44:43.931Z,8.34
2023-04-16T04:45:43.982Z,8.38
2023-04-16T04:46:44.084Z,8.45
2023-04-16T04:47:44.128Z,8.56
2023-04-16T04:48:44.113Z,8.71
2023-04-16T04:49:44.098Z,8.87
2023-04-16T04:50:44.172Z,8.98
2023-04-16T04:51:44.232Z,9.04
2023-04-16T04:52:44.251Z,9.13
2023-04-16T04:53:44.300Z,9.13
2023-04-16T04:54:44.442Z,9.24
2023-04-16T04:55:44.405Z,9.21
2023-04-16T04:56:44.411Z,9.17
2023-04-16T04:57:44.458Z,9.14
2023-04-16T04:58:44.457Z,9.01
2023-04-16T04:59:44.467Z,8.98
2023-04-16T05:00:44.603Z,8.97
2023-04-16T05:01:44.552Z,9.01
2023-04-16T05:02:44.661Z,9.13
2023-04-16T05:03:44.730Z,8.93
2023-04-16T05:04:44.655Z,8.96
2023-04-16T05:05:45.511Z,9.06
2023-04-16T05:06:44.668Z,9.04
2023-04-16T05:07:44.739Z,8.85
2023-04-16T05:08:44.744Z,8.78
2023-04-16T05:09:44.758Z,8.83
2023-04-16T05:10:44.787Z,8.82
2023-04-16T05:11:44.889Z,8.84
2023-04-16T05:12:44.901Z,8.94
2023-04-16T05:13:44.916Z,8.99
2023-04-16T05:14:44.907Z,8.96
2023-04-16T05:15:44.931Z,8.81
2023-04-16T05:16:45.016Z,8.82
2023-04-16T05:17:45.075Z,8.87
2023-04-16T05:18:45.092Z,8.93
2023-04-16T05:19:45.067Z,8.85
2023-04-16T05:20:45.129Z,8.80
2023-04-16T05:21:45.145Z,8.88
2023-04-16T05:22:45.251Z,8.96
2023-04-16T05:23:45.283Z,9.00
2023-04-16T05:24:45.304Z,8.91
2023-04-16T05:25:45.302Z,8.98
2023-04-16T05:26:45.347Z,9.02
2023-04-16T05:27:45.322Z,9.04
2023-04-16T05:28:45.591Z,9.07
2023-04-16T05:29:45.368Z,9.09
2023-04-16T05:30:45.537Z,9.12
2023-04-16T05:31:45.434Z,8.99
2023-04-16T05:32:45.522Z,8.98
2023-04-16T05:33:45.482Z,8.98
2023-04-16T05:34:45.478Z,8.98
2023-04-16T05:35:45.552Z,8.95
2023-04-16T05:36:45.626Z,8.95
2023-04-16T05:37:45.639Z,8.83
2023-04-16T05:38:45.760Z,8.72
2023-04-16T05:39:45.740Z,8.61
2023-04-16T05:40:46.518Z,8.58
2023-04-16T05:41:45.781Z,8.61
2023-04-16T05:42:45.796Z,8.72
2023-04-16T05:43:45.814Z,8.79
2023-04-16T05:44:45.870Z,8.85
2023-04-16T05:45:45.875Z,8.87
2023-04-16T05:46:45.917Z,8.90
2023-04-16T05:47:46.051Z,8.88
2023-04-16T05:48:46.117Z,8.86
2023-04-16T05:49:46.538Z,8.90
2023-04-16T05:50:46.236Z,8.94
2023-04-16T05:51:46.206Z,8.99
2023-04-16T05:52:46.236Z,9.14
2023-04-16T05:53:46.301Z,9.29
2023-04-16T05:54:46.263Z,9.29
2023-04-16T05:55:46.356Z,9.39
2023-04-16T05:56:46.359Z,9.42
2023-04-16T05:57:46.397Z,9.37
2023-04-16T05:58:46.544Z,9.39
2023-04-16T05:59:46.458Z,9.31
2023-04-16T06:00:46.483Z,9.30
2023-04-16T06:01:46.548Z,9.26
2023-04-16T06:02:46.647Z,9.29
2023-04-16T06:03:46.572Z,9.22
2023-04-16T06:04:46.559Z,9.19
2023-04-16T06:05:46.686Z,9.19
2023-04-16T06:06:46.690Z,9.20
2023-04-16T06:07:46.666Z,9.20
2023-04-16T06:08:46.677Z,9.22
2023-04-16T06:09:46.761Z,9.23
2023-04-16T06:10:46.867Z,9.34
2023-04-16T06:11:46.835Z,9.32
2023-04-16T06:12:46.853Z,9.33
2023-04-16T06:13:46.888Z,9.25
2023-04-16T06:14:46.887Z,9.26
2023-04-16T06:15:46.953Z,9.35
2023-04-16T06:16:46.921Z,9.38
2023-04-16T06:17:46.987Z,9.41
2023-04-16T06:18:47.024Z,9.48
2023-04-16T06:19:46.991Z,9.53
2023-04-16T06:20:47.010Z,9.37
2023-04-16T06:21:47.028Z,9.40
2023-04-16T06:22:47.041Z,9.44
2023-04-16T06:23:47.060Z,9.44
2023-04-16T06:24:47.544Z,9.46
2023-04-16T06:25:47.127Z,9.50
2023-04-16T06:26:47.172Z,9.53
2023-04-16T06:27:47.191Z,9.60
2023-04-16T06:28:47.261Z,9.69
2023-04-16T06:29:47.261Z,9.71
2023-04-16T06:30:47.289Z,9.77
2023-04-16T06:31:47.310Z,9.80
2023-04-16T06:32:47.350Z,9.79
2023-04-16T06:33:47.393Z,9.82
2023-04-16T06:34:47.365Z,9.65
2023-04-16T06:35:47.336Z,9.65
2023-04-16T06:36:47.357Z,9.61
2023-04-16T06:37:47.372Z,9.61
2023-04-16T06:38:47.396Z,9.56
2023-04-16T06:39:47.393Z,9.66
2023-04-16T06:40:47.432Z,9.82
2023-04-16T06:41:47.441Z,9.81
2023-04-16T06:42:47.452Z,9.90
2023-04-16T06:43:47.462Z,9.94
2023-04-16T06:44:47.509Z,9.94
2023-04-16T06:45:47.577Z,9.91
2023-04-16T06:46:47.620Z,9.72
2023-04-16T06:47:47.615Z,9.68
2023-04-16T06:48:47.629Z,9.83
2023-04-16T06:49:47.658Z,9.94
2023-04-16T06:50:47.642Z,10.06
2023-04-16T06:51:47.739Z,10.09
2023-04-16T06:52:47.740Z,9.82
2023-04-16T06:53:47.775Z,9.83
2023-04-16T06:54:47.791Z,9.82
2023-04-16T06:55:47.804Z,9.85
2023-04-16T06:56:47.832Z,9.65
2023-04-16T06:57:47.846Z,9.70
2023-04-16T06:58:47.895Z,9.72
2023-04-16T06:59:47.941Z,9.66
2023-04-16T07:00:48.066Z,9.74
2023-04-16T07:01:48.175Z,9.86
2023-04-16T07:02:48.169Z,9.95
2023-04-16T07:03:48.445Z,9.98
2023-04-16T07:04:48.116Z,9.98
2023-04-16T07:05:48.141Z,9.90
2023-04-16T07:06:48.149Z,9.76
2023-04-16T07:07:48.112Z,9.81
2023-04-16T07:08:48.248Z,9.78
2023-04-16T07:09:48.152Z,9.84
2023-04-16T07:10:48.199Z,9.88
2023-04-16T07:11:48.192Z,10.08
2023-04-16T07:12:48.223Z,9.80
2023-04-16T07:13:48.229Z,10.01
2023-04-16T07:14:48.273Z,9.98
2023-04-16T07:15:48.265Z,9.83
2023-04-16T07:16:48.360Z,9.83
2023-04-16T07:17:48.338Z,9.76
2023-04-16T07:18:48.358Z,9.87
2023-04-16T07:19:48.360Z,10.10
2023-04-16T07:20:48.369Z,10.14
2023-04-16T07:21:48.453Z,10.23
2023-04-16T07:22:48.531Z,10.41
2023-04-16T07:23:48.580Z,10.26
2023-04-16T07:24:48.485Z,10.38
2023-04-16T07:25:48.535Z,10.22
2023-04-16T07:26:48.521Z,10.34
2023-04-16T07:27:48.548Z,10.42
2023-04-16T07:28:48.564Z,10.39
2023-04-16T07:29:48.683Z,10.34
2023-04-16T07:30:48.652Z,10.45
2023-04-16T07:31:48.752Z,10.43
2023-04-16T07:32:48.792Z,10.35
2023-04-16T07:33:48.762Z,10.47
2023-04-16T07:34:48.774Z,10.48
2023-04-16T07:35:49.112Z,10.59
2023-04-16T07:36:48.786Z,10.39
2023-04-16T07:37:48.903Z,10.30
2023-04-16T07:38:48.802Z,10.25
2023-04-16T07:39:48.872Z,10.34
2023-04-16T07:40:48.887Z,10.40
2023-04-16T07:41:48.917Z,10.48
2023-04-16T07:42:48.986Z,10.37
2023-04-16T07:43:49.005Z,10.54
2023-04-16T07:44:49.568Z,10.51
2023-04-16T07:45:49.001Z,10.35
2023-04-16T07:46:49.049Z,10.24
2023-04-16T07:47:49.097Z,10.31
2023-04-16T07:48:49.064Z,10.37
2023-04-16T07:49:49.084Z,10.24
2023-04-16T07:50:49.073Z,10.31
2023-04-16T07:51:49.130Z,10.52
2023-04-16T07:52:49.164Z,10.54
2023-04-16T07:53:49.237Z,10.76
2023-04-16T07:54:49.245Z,10.82
2023-04-16T07:55:49.268Z,10.81
2023-04-16T07:56:49.281Z,10.91
2023-04-16T07:57:49.307Z,10.97
2023-04-16T07:58:49.322Z,10.93
2023-04-16T07:59:49.349Z,10.84
2023-04-16T08:00:50.997Z,10.77
2023-04-16T08:01:49.439Z,10.85
2023-04-16T08:02:49.598Z,10.87
2023-04-16T08:03:49.646Z,10.85
2023-04-16T08:04:49.573Z,10.93
2023-04-16T08:05:49.588Z,10.99
2023-04-16T08:06:49.577Z,11.19
2023-04-16T08:07:49.642Z,11.18
2023-04-16T08:08:49.672Z,11.08
2023-04-16T08:09:49.678Z,11.15
2023-04-16T08:10:50.164Z,10.98
2023-04-16T08:11:49.745Z,10.91
2023-04-16T08:12:49.746Z,11.13
2023-04-16T08:13:49.846Z,11.24
2023-04-16T08:14:49.824Z,11.28
2023-04-16T08:15:50.065Z,11.11
2023-04-16T08:16:49.949Z,10.99
2023-04-16T08:17:50.087Z,11.00
2023-04-16T08:18:50.064Z,11.11
2023-04-16T08:19:50.046Z,11.03
2023-04-16T08:20:50.154Z,11.00
2023-04-16T08:21:50.122Z,11.06
2023-04-16T08:22:50.169Z,11.26
2023-04-16T08:23:50.215Z,11.30
2023-04-16T08:24:50.201Z,11.28
2023-04-16T08:25:51.762Z,11.41
2023-04-16T08:26:50.232Z,11.49
2023-04-16T08:27:50.281Z,11.46
2023-04-16T08:28:50.552Z,11.38
2023-04-16T08:29:50.383Z,11.39
2023-04-16T08:30:50.435Z,11.45
2023-04-16T08:31:50.521Z,11.57
2023-04-16T08:32:50.660Z,11.69
2023-04-16T08:33:50.655Z,11.67
2023-04-16T08:34:50.592Z,11.67
2023-04-16T08:35:51.558Z,11.79
2023-04-16T08:36:50.649Z,11.85
2023-04-16T08:37:50.669Z,11.48
2023-04-16T08:38:50.750Z,11.69
2023-04-16T08:39:50.754Z,11.79
2023-04-16T08:40:51.594Z,11.91
2023-04-16T08:41:50.885Z,12.03
2023-04-16T08:42:50.920Z,12.06
2023-04-16T08:43:50.931Z,12.08
2023-04-16T08:44:50.988Z,12.24
2023-04-16T08:45:50.969Z,12.39
2023-04-16T08:46:51.001Z,12.39
2023-04-16T08:47:51.166Z,12.10
2023-04-16T08:48:51.079Z,12.05
2023-04-16T08:49:51.099Z,12.07
2023-04-16T08:50:52.235Z,12.28
2023-04-16T08:51:51.182Z,12.52
2023-04-16T08:52:51.241Z,12.61
2023-04-16T08:53:51.273Z,12.74
2023-04-16T08:54:56.512Z,12.83
2023-04-16T08:55:52.351Z,12.92
2023-04-16T08:56:51.308Z,12.84
2023-04-16T08:57:51.282Z,12.70
2023-04-16T08:58:51.281Z,12.66
2023-04-16T08:59:51.285Z,12.42
2023-04-16T09:00:51.256Z,12.51
2023-04-16T09:01:51.354Z,12.58
2023-04-16T09:02:51.298Z,12.68
2023-04-16T09:04:54.663Z,12.67
2023-04-16T09:05:54.665Z,12.63
2023-04-16T09:06:54.684Z,12.56
2023-04-16T09:07:54.695Z,12.65
2023-04-16T09:08:54.713Z,12.76
2023-04-16T09:09:54.647Z,12.85
2023-04-16T09:10:54.622Z,12.83
2023-04-16T09:11:54.625Z,12.67
2023-04-16T09:12:54.624Z,12.72
2023-04-16T09:13:54.610Z,12.81
2023-04-16T09:14:54.632Z,12.87
2023-04-16T09:15:54.630Z,12.93
2023-04-16T09:16:54.644Z,12.84
2023-04-16T09:17:54.636Z,12.82
2023-04-16T09:18:54.577Z,12.85
2023-04-16T09:19:54.570Z,12.90
2023-04-16T09:20:54.703Z,12.89
2023-04-16T09:21:54.617Z,12.89
2023-04-16T09:22:54.576Z,12.82
2023-04-16T09:23:54.598Z,12.84
2023-04-16T09:24:54.570Z,12.93
2023-04-16T09:25:54.560Z,13.04
2023-04-16T09:26:54.573Z,13.03
2023-04-16T09:27:54.571Z,13.14
2023-04-16T09:28:54.562Z,13.15
2023-04-16T09:29:54.565Z,13.17
2023-04-16T09:30:54.510Z,12.75
2023-04-16T09:31:54.555Z,12.62
2023-04-16T09:32:54.544Z,12.73
2023-04-16T09:33:54.535Z,12.75
2023-04-16T09:34:54.495Z,12.83
2023-04-16T09:35:54.489Z,12.96
2023-04-16T09:36:54.513Z,13.12
2023-04-16T09:37:54.477Z,13.18
2023-04-16T09:38:56.890Z,13.26
2023-04-16T09:39:54.505Z,13.36
2023-04-16T09:40:54.453Z,13.32
2023-04-16T09:41:54.463Z,13.21
2023-04-16T09:42:54.421Z,13.28
2023-04-16T09:43:54.453Z,13.16
2023-04-16T09:44:54.426Z,12.72
2023-04-16T09:45:54.467Z,12.71
2023-04-16T09:46:54.404Z,12.84
2023-04-16T09:47:54.457Z,12.95
2023-04-16T09:48:54.400Z,13.01
2023-04-16T09:49:54.394Z,13.02
2023-04-16T09:50:54.406Z,13.06
2023-04-16T09:51:54.393Z,13.11
2023-04-16T09:52:54.401Z,13.07
2023-04-16T09:53:54.391Z,13.16
2023-04-16T09:54:54.350Z,13.16
2023-04-16T09:55:54.374Z,13.22
2023-04-16T09:56:54.373Z,13.21
2023-04-16T09:57:54.437Z,13.15
2023-04-16T09:58:54.355Z,13.15
2023-04-16T09:59:54.327Z,13.17
2023-04-16T10:00:54.330Z,13.01
2023-04-16T10:02:14.354Z,13.01
2023-04-16T10:02:55.362Z,12.97
2023-04-16T10:03:54.471Z,12.90
2023-04-16T10:04:54.305Z,12.90
2023-04-16T10:05:54.285Z,12.70
2023-04-16T10:06:54.295Z,12.60
2023-04-16T10:07:54.237Z,12.73
2023-04-16T10:08:54.338Z,12.71
2023-04-16T10:09:54.234Z,12.53
2023-04-16T10:10:54.252Z,12.69
2023-04-16T10:11:54.262Z,12.57
2023-04-16T10:12:54.278Z,12.48
2023-04-16T10:13:54.229Z,12.32
2023-04-16T10:14:54.268Z,12.08
2023-04-16T10:15:54.305Z,11.87
2023-04-16T10:16:54.344Z,12.28
2023-04-16T10:17:54.398Z,12.38
2023-04-16T10:18:54.342Z,12.29
2023-04-16T10:19:54.363Z,12.45
2023-04-16T10:20:54.384Z,12.37
2023-04-16T10:21:54.400Z,12.17
2023-04-16T10:22:54.437Z,12.18
2023-04-16T10:23:54.528Z,12.38
2023-04-16T10:24:54.501Z,12.28
2023-04-16T10:25:56.402Z,12.09
2023-04-16T10:26:54.572Z,12.02
2023-04-16T10:27:55.507Z,12.17
2023-04-16T10:28:54.601Z,12.18
2023-04-16T10:29:54.524Z,12.03
2023-04-16T10:30:54.650Z,12.12
2023-04-16T10:31:54.514Z,12.23
2023-04-16T10:32:54.555Z,12.53
2023-04-16T10:33:54.513Z,12.77
2023-04-16T10:34:54.566Z,12.87
2023-04-16T10:36:06.794Z,12.83
2023-04-16T10:36:55.519Z,12.75
2023-04-16T10:37:54.467Z,12.80
2023-04-16T10:38:54.484Z,12.80
2023-04-16T10:39:54.482Z,12.76
2023-04-16T10:40:54.456Z,12.93
2023-04-16T10:41:54.451Z,12.76
2023-04-16T10:42:54.460Z,12.64
2023-04-16T10:43:54.431Z,12.50
2023-04-16T10:44:54.499Z,12.52
2023-04-16T10:45:54.435Z,12.60
2023-04-16T10:46:54.461Z,12.65
2023-04-16T10:47:54.451Z,12.65
2023-04-16T10:48:54.436Z,12.65
2023-04-16T10:49:54.403Z,12.63
2023-04-16T10:50:54.401Z,12.76
2023-04-16T10:51:54.367Z,12.63
2023-04-16T10:52:54.400Z,12.57
2023-04-16T10:53:54.407Z,12.74
2023-04-16T10:54:54.465Z,12.78
2023-04-16T10:55:54.487Z,12.98
2023-04-16T10:56:54.484Z,13.04
2023-04-16T10:57:54.537Z,13.03
2023-04-16T10:58:54.612Z,12.79
2023-04-16T10:59:54.644Z,12.90
2023-04-16T11:00:54.620Z,12.83
2023-04-16T11:01:54.858Z,13.07
2023-04-16T11:02:54.869Z,13.17
2023-04-16T11:03:54.904Z,13.46
2023-04-16T11:04:54.819Z,13.50
2023-04-16T11:05:54.888Z,13.47
2023-04-16T11:06:54.823Z,13.12
2023-04-16T11:07:54.884Z,13.08
2023-04-16T11:08:55.404Z,13.20
2023-04-16T11:09:54.969Z,13.27
2023-04-16T11:10:55.001Z,13.16
2023-04-16T11:11:55.056Z,13.00
2023-04-16T11:12:55.069Z,13.06
2023-04-16T11:13:55.079Z,12.99
2023-04-16T11:14:55.100Z,12.98
2023-04-16T11:15:55.150Z,12.87
2023-04-16T11:16:55.143Z,12.87
2023-04-16T11:17:55.249Z,12.99
2023-04-16T11:18:56.816Z,13.23
2023-04-16T11:19:55.260Z,12.86
2023-04-16T11:20:55.259Z,12.50
2023-04-16T11:21:55.298Z,12.45
2023-04-16T11:22:55.318Z,12.62
2023-04-16T11:23:58.561Z,12.57
2023-04-16T11:24:55.332Z,12.67
2023-04-16T11:25:55.345Z,12.97
2023-04-16T11:26:55.307Z,12.88
2023-04-16T11:27:55.335Z,12.80
2023-04-16T11:28:55.300Z,12.64
2023-04-16T11:29:55.329Z,12.45
2023-04-16T11:30:55.283Z,12.44
2023-04-16T11:31:55.380Z,12.56
2023-04-16T11:32:55.355Z,12.61
2023-04-16T11:33:55.315Z,12.91
2023-04-16T11:34:55.292Z,12.93
2023-04-16T11:35:55.282Z,12.76
2023-04-16T11:36:55.246Z,12.61
2023-04-16T11:37:55.275Z,12.74
2023-04-16T11:38:55.262Z,12.65
2023-04-16T11:39:55.261Z,12.77
2023-04-16T11:40:55.228Z,12.85
2023-04-16T11:41:55.233Z,12.93
2023-04-16T11:42:55.255Z,12.94
2023-04-16T11:43:55.235Z,12.98
2023-04-16T11:44:55.214Z,12.85
2023-04-16T11:45:55.213Z,12.88
2023-04-16T11:46:55.249Z,12.73
2023-04-16T11:47:55.356Z,12.79
2023-04-16T11:48:55.175Z,12.77
2023-04-16T11:49:55.193Z,13.02
2023-04-16T11:50:55.156Z,12.99
2023-04-16T11:51:55.179Z,12.90
2023-04-16T11:52:55.177Z,12.93
2023-04-16T11:53:55.181Z,12.67
2023-04-16T11:54:55.133Z,12.76
2023-04-16T11:55:55.142Z,12.80
2023-04-16T11:56:55.154Z,12.94
2023-04-16T11:57:55.129Z,13.01
2023-04-16T11:58:55.188Z,12.88
2023-04-16T12:00:01.361Z,13.04
2023-04-16T12:00:56.116Z,13.17
2023-04-16T12:01:55.223Z,13.22
2023-04-16T12:02:55.486Z,13.17
2023-04-16T12:03:55.404Z,13.18
2023-04-16T12:04:55.187Z,13.27
2023-04-16T12:05:55.066Z,13.05
2023-04-16T12:06:55.099Z,12.86
2023-04-16T12:07:55.104Z,12.77
2023-04-16T12:08:55.069Z,12.84
2023-04-16T12:09:55.057Z,12.84
2023-04-16T12:10:55.072Z,12.90
2023-04-16T12:11:55.042Z,12.95
2023-04-16T12:12:55.149Z,12.94
2023-04-16T12:13:55.028Z,12.85
2023-04-16T12:14:55.040Z,12.79
2023-04-16T12:15:55.008Z,12.79
2023-04-16T12:16:55.062Z,12.81
2023-04-16T12:17:55.048Z,12.91
2023-04-16T12:18:55.016Z,12.92
2023-04-16T12:19:55.016Z,12.92
2023-04-16T12:20:55.121Z,12.84
2023-04-16T12:21:55.124Z,12.85
2023-04-16T12:22:55.184Z,12.91
2023-04-16T12:23:55.207Z,12.79
2023-04-16T12:24:55.243Z,12.89
2023-04-16T12:25:55.299Z,12.83
2023-04-16T12:26:55.361Z,12.73
2023-04-16T12:27:55.400Z,12.80
2023-04-16T12:28:55.437Z,12.71
2023-04-16T12:29:55.493Z,12.67
2023-04-16T12:30:55.605Z,12.75
2023-04-16T12:31:55.549Z,12.71
2023-04-16T12:32:56.637Z,12.78
2023-04-16T12:33:55.765Z,12.75
2023-04-16T12:34:55.520Z,12.80
2023-04-16T12:35:55.526Z,12.93
2023-04-16T12:36:55.549Z,12.89
2023-04-16T12:37:55.519Z,12.88
2023-04-16T12:38:55.545Z,12.86
2023-04-16T12:39:55.502Z,12.80
2023-04-16T12:40:55.530Z,12.72
2023-04-16T12:41:55.493Z,12.71
2023-04-16T12:42:55.501Z,12.50
2023-04-16T12:43:55.487Z,12.45
2023-04-16T12:44:55.452Z,12.50
2023-04-16T12:45:55.501Z,12.50
2023-04-16T12:46:55.433Z,12.41
2023-04-16T12:47:55.479Z,12.36
2023-04-16T12:48:55.461Z,12.37
2023-04-16T12:49:55.452Z,12.46
2023-04-16T12:50:55.443Z,12.35
2023-04-16T12:51:55.415Z,12.37
2023-04-16T12:52:55.401Z,12.33
2023-04-16T12:53:55.407Z,12.37
2023-04-16T12:54:55.416Z,12.39
2023-04-16T12:55:55.486Z,12.57
2023-04-16T12:56:55.373Z,12.51
2023-04-16T12:57:55.368Z,12.55
2023-04-16T12:58:55.466Z,12.31
2023-04-16T12:59:55.370Z,12.36
2023-04-16T13:00:55.339Z,12.39
2023-04-16T13:01:55.412Z,12.47
2023-04-16T13:02:55.557Z,12.55
2023-04-16T13:03:55.713Z,12.40
2023-04-16T13:04:55.313Z,12.30
2023-04-16T13:05:55.329Z,12.35
2023-04-16T13:06:55.335Z,12.54
2023-04-16T13:07:55.295Z,12.62
2023-04-16T13:08:55.286Z,12.64
2023-04-16T13:09:55.290Z,12.72